To NAV CANADA Home Page Login to a new session Search on AWWS site Disclaimer Vers la page française équivalente Tips FAQ What's new on the site To the Forecasts and Observations / NOTAM section To "File a Flight Plan" website Publications and other links Update of the User's profile FIC Telephone Numbers My Weather Data Folder Route Weather Data Regional Weather Data Local Weather Data To the Forecasts and Observations / NOTAM section
Request Generated 11/13/2018 at 18:56:42 UTC . Weather information available at that time is displayed.

METAR/TAF

PETAWAWA/ON    

METAR CYWA 131800Z AUTO 33009KT 9SM SCT032 SCT059 OVC065 M03/M09 A3006 RMK SLP186=
SPECI CYWA 131752Z AUTO 31011G16KT 9SM BKN027 BKN049 BKN059 OVC065 M03/M08 A3006=
SPECI CYWA 131724Z AUTO 31011G17KT 9SM BKN024 BKN057 OVC062 M03/M08 A3007=
METAR CYWA 131700Z AUTO 32013KT 9SM FEW044 FEW050 OVC062 M03/M07 A3007 RMK SLP191=
SPECI CYWA 131637Z AUTO 31014KT 9SM FEW025 FEW034 SCT041 M03/M06 A3008=
SPECI CYWA 131630Z AUTO 32010KT 5SM BKN014 BKN050 OVC062 M03/M06 A3008=
SPECI CYWA 131626Z AUTO 31011KT 3SM -SN BKN014 BKN050 BKN062 M03/M06 A3008=
SPECI CYWA 131605Z AUTO 32010G16KT 2 1/2SM -SN OVC014 M03/M06 A3008=
SPECI CYWA 131603Z AUTO 32012KT 3SM -SN OVC014 M03/M06 A3008=
METAR CYWA 131600Z AUTO 31010KT 3SM -SN OVC016 M03/M06 A3009 RMK PCPN 0.5MM PAST HR SLP196=

TAF CYWA 131733Z 1318/1406 32014KT P6SM FEW020 BKN060 TEMPO 1318/1320
5SM -SHSN BKN020 OVC060
BECMG 1320/1322 31010KT
RMK FCST BASED ON AUTO OBS. NXT FCST BY 140000Z=
Your time UTC time
Weather data provided by Environment Canada and NAV CANADA